MDT,Max TemperatureF,Mean TemperatureF,Min TemperatureF,Max Dew PointF,MeanDew PointF,Min DewpointF,Max Humidity, Mean Humidity, Min Humidity, Max Sea Level PressureIn, Mean Sea Level PressureIn, Min Sea Level PressureIn, Max VisibilityMiles, Mean VisibilityMiles, Min VisibilityMiles, Max Wind SpeedMPH, Mean Wind SpeedMPH, Max Gust SpeedMPH,PrecipitationIn, CloudCover, Events, WindDirDegrees
2012-10-1,75,60,46,46,42,34,72,60,34,30.34,30.26,30.17,15,11,10,9,3,,0.00,0,,126
2012-10-2,75,60,44,48,41,37,82,65,27,30.17,30.12,29.99,15,12,10,6,1,,0.00,0,,139
2012-10-3,73,58,44,43,35,25,76,49,18,30.15,30.06,29.99,15,12,10,18,6,,0.00,0,,320
2012-10-4,73,56,39,39,32,25,62,46,27,30.18,30.11,30.01,15,12,10,17,7,,0.00,0,,355
2012-10-5,62,50,37,34,26,19,65,37,22,30.23,30.15,30.06,15,12,10,18,8,25,0.00,1,,331
2012-10-6,60,46,33,30,25,19,75,48,23,30.23,30.17,30.10,15,12,10,15,4,18,0.00,0,,342
2012-10-7,60,46,33,43,26,16,93,54,20,30.25,30.17,30.11,15,12,10,10,6,,0.00,0,,134
2012-10-8,66,49,32,41,27,19,71,53,26,30.14,30.07,29.96,15,12,10,9,3,,0.00,0,,139
2012-10-9,73,56,39,43,34,27,81,56,18,30.08,30.02,29.98,15,12,10,10,4,,0.00,0,,24
2012-10-10,75,60,44,48,37,30,72,50,25,30.11,30.05,29.95,15,12,10,25,2,39,0.00,2,,179
2012-10-11,73,60,46,48,42,36,82,59,30,30.04,29.99,29.92,15,12,10,12,3,18,0.00,2,,167
2012-10-12,60,53,46,48,42,36,87,71,42,30.10,29.99,29.93,15,12,8,28,6,33,0.02,5,,165
2012-10-13,55,50,44,48,43,41,93,82,63,30.32,30.20,30.11,15,12,10,10,4,,0.07,7,,160
2012-10-14,64,52,39,46,41,36,100,79,34,30.42,30.33,30.26,15,12,10,7,2,,0.00,0,,131
2012-10-15,68,52,37,46,40,36,93,73,40,30.25,30.16,30.06,15,12,10,8,2,,0.00,1,,146
2012-10-16,73,58,42,46,40,28,81,64,31,30.07,30.00,29.78,15,12,7,44,5,55,0.00,3,Rain,43
2012-10-17,55,47,37,30,27,21,75,45,26,30.25,30.19,30.09,15,12,10,15,10,18,0.00,0,,308
2012-10-18,60,46,32,36,26,18,81,57,20,30.37,30.29,30.24,15,12,10,8,2,,0.00,0,,115
2012-10-19,64,48,33,39,31,23,76,59,31,30.25,30.11,29.97,15,12,10,9,4,,0.00,1,,124
2012-10-20,75,57,39,39,34,28,81,53,22,29.97,29.84,29.69,15,12,10,16,3,22,0.00,1,,98
2012-10-21,66,55,44,46,38,28,82,52,26,29.83,29.79,29.77,15,12,10,12,4,,0.00,2,,226
2012-10-22,66,62,57,43,40,37,59,45,37,29.80,29.75,29.67,15,11,8,29,15,38,0.00,4,,185
2012-10-23,60,51,41,39,36,34,81,62,42,29.93,29.83,29.71,15,12,10,31,21,38,0.00,5,,275
2012-10-24,44,38,32,36,32,28,93,79,57,30.12,30.01,29.93,15,11,10,24,14,31,0.01,6,Rain,316
2012-10-25,42,35,28,36,29,27,100,83,53,30.41,30.22,30.11,15,11,4,22,6,23,0.00,3,Snow,105
2012-10-26,48,36,24,30,25,19,93,72,37,30.49,30.37,30.21,15,12,10,9,4,,0.00,2,,112
2012-10-27,53,42,30,36,28,19,80,66,30,30.25,30.20,30.16,15,12,10,7,2,,0.00,3,,127
2012-10-28,62,48,35,37,32,27,81,61,31,30.25,30.19,30.13,15,12,10,7,3,,0.00,3,,147
2012-10-29,64,50,35,39,35,30,87,69,34,30.25,30.20,30.18,15,12,10,12,2,,0.00,0,,151
2012-10-30,66,52,37,39,34,28,87,65,34,30.25,30.20,30.13,15,12,10,7,1,,0.00,0,,162
2012-10-31,66,52,39,39,32,28,76,53,32,30.21,30.13,30.04,15,12,10,10,4,,0.00,1,,144